עמוד ראשי
METAR-TAF:

METAR-TAF

שדות תעופה :

נמל התעופה הבינלאומי ריאד המלך ח'אלד

ריאד, ערב הסעודית

קו רוחב: 24-56N, קו אורך: 046-43E, גובה: 614מטר

תצפית מזג אוויר נוכחית

הדו"ח נערך לפני 1 שעות ו 3דקות, בשעה 20:00 UTC
רוח רגועה
טמפרטורת 35 צלסיוס
לחות 10%
לחץ 1008 hPa
ראות 10 קילומטר או יותר
ללא עננים שבסיסם נמוך מ 5000 רגל או קומולונימבוס

METAR: OERK 132000Z 00000KT CAVOK 35/M01 Q1008 NOSIG

זמן: 00:03 (21:03 UTC)

תחזית

הדו"ח נערך לפני 4 שעות ו 3דקות, בשעה 17:00 UTC
תחזית בתוקף מ 13 ב 18 UTC עד 14 ב 24 UTC
רוח 5קשר מכיוון צפון
ראות: 7000מטר
מעט עננים בגובה 4000רגל
הסתברות 30% :
זמנית מ -
13 ב 18 UTC עד 14 ב 00 UTC
מעט עננים בגובה 3000רגל , קומולונימבוס.
יעשה מ
14 ב 06 UTC עד 14 ב 08 UTC
רוח 14קשר מכיוון מערב/צפון-מערב
הסתברות 30% :
זמנית מ -
14 ב 10 UTC עד 14 ב 18 UTC
ראות: 4000מטר
אבק נושב
יעשה מ
14 ב 18 UTC עד 14 ב 20 UTC
רוח 10קשר מכיוון צפון

TAF: OERK 131700Z 1318/1424 36005KT 7000 FEW040 PROB30 TEMPO 1318/1400 FEW030CB BECMG 1406/1408 30014KT PROB30 TEMPO 1410/1418 4000 BLDU BECMG 1418/1420 36010KT

תצפיות ותחזיות מזג אוויר לגבי יותר מ- 4,000 שדות תעופה ברחבי העולם. דוחות METAR ו- TAF.

התחנות הזמינות מסומנות בנקודות צהובות ואדומות על גבי המפה.

העבר את העכבר לנקודה הצבעונית על מנת לראות את שם התחנה.

לאחר מכן, לחץ כדי לראות את תוכן ואת תחזיות מזג האוויר.

כדי לשנות את המפה: לחץ על הכפתורים הירוקים עם הפלוס השחור כדי להתקרב; על הכפתור הירוק עם המקף כדי להתרחק; או בחיצים הירוקים למפות סמוכות.


METAR-TAF: